KABQ/ABQ METAR and TAF weather

Enter ICAO airport designator
Station Type Date Time Source
KABQ METAR 2019/07/17 18:52 UTC NOAA

KABQ 171852Z 23005KT 10SM FEW090 FEW160 32/08 A3014 RMK AO2 SLP108 T03220083


Station Type Date Time Source
KABQ Decoded METAR 2019/07/17 18:52 UTC NOAA

ALBUQUERQUE INTERNATIONAL AIRPORT, NM, United States (KABQ) 35-02N 106-36W 1618M
Jul 17, 2019 - 02:52 PM EDT / 2019.07.17 1852 UTC
Wind: from the SW (230 degrees) at 6 MPH (5 KT):0
Visibility: 10 mile(s):0
Sky conditions: mostly clear
Temperature: 90.0 F (32.2 C)
Dew Point: 46.9 F (8.3 C)
Relative Humidity: 22%
Pressure (altimeter): 30.14 in. Hg (1020 hPa)
ob: KABQ 171852Z 23005KT 10SM FEW090 FEW160 32/08 A3014 RMK AO2 SLP108 T03220083
cycle: 19

Station Type Date Time Source
KABQ TAF 2019/07/17 18:27 UTC NOAA

TAF KABQ 171724Z 1718/1818 28006KT P6SM SKC
FM172200 31014G22KT P6SM SCT130
FM180200 VRB05KT P6SM FEW150

Example: see airport list